Hauptseite
METAR-TAF:

METAR-TAF

Flughäfen :

Flughafen Balıkesir-Koca Seyit

Edremit, Türkei

Breite: 39-33-16N, Länge: 27-00-49E, Höhe: 15 m

Beobachtung

Neuester Wetterbericht von vor 42 Minuten, um 03:50 UTC
Wind 13 kt aus Ost
Temperatur 15°C
Luftfeuchtigkeit 63%
Luftdruck 1014 hPa
Sichtweite 10 km oder mehr
Aufgelockert bewölkt in der Höhe von 3500 ft
Durchbrochene Bewölkung in der Höhe von 10000 ft

METAR: LTFD 220350Z 09013KT 9999 SCT035 BKN100 15/08 Q1014

Zeit: 07:32 (04:32 UTC)

Prognose

Neuester Wetterbericht von vor 2 Stunden und 52 Minuten, um 01:40 UTC
Gültige Prognose vom 22 um 03 UTC bis 22 um 12 UTC
Wind 5 kt aus Ost
Sichtweite 10 km oder mehr
Aufgelockert bewölkt in der Höhe von 3500 ft
Durchbrochene Bewölkung in der Höhe von 10000 ft
Zeitweise
vom 22 um 03 UTC bis 22 um 06 UTC
Regenschauer

TAF: LTFD 220140Z 2203/2212 08005KT 9999 SCT035 BKN100 TEMPO 2203/2206 -SHRA

Wetterbeobachtungen und Prognosen von mehr als 4000 Flughäfen (METAR und TAF Bericht).

Die verfügbaren Stationen werden durch gelbe und rote Markierungen auf der Karte dargestellt.

Führen Sie die Maus auf sie, um den Namen der Station zu sehen.

Darauf klicken, um die Beobachtung von Wetterbeobachtungen und Prognosen zu sehen.

Um die Karte zu ändern : klicken Sie auf den grünen Tasten mit einem schwarzen Kreuz Zum Vergrößern, auf den grünen Button mit einem Gedankenstrich zu verkleinern, oder auf die grünen Pfeile für benachbarte Karten.


METAR-TAF: